Аэропорт: Ширак. Гюмри

ICAO: UDSG

METAR:
2020-06-04 05:30:00
UDSG 040530Z 00000KT 9999 NSC 18/07 Q1015 R02/CLRD70 NOSIG
METAR:
2020-06-03 17:08:00
TAF UDSG 031708Z 0318/0418 0606KT 9999 SCT040 TEMPO 0318/0321 FEW050CB